Time;durP1;ratioP1;P1;durP2;ratioP2;P2;SDS_P1;SDS_P2;PMS_P1;PMS_P2;Temp;Humidity;BMP_temperature;BMP_pressure;BME280_temperature;BME280_humidity;BME280_pressure;Samples;Min_cycle;Max_cycle;Signal;HPM_P1;HPM_P2
2023/03/12 00:00:09;;;;;;;4.78;1.95;;;2.60;81.90;;;;;;6146483;23;20140;-80
2023/03/12 00:02:37;;;;;;;4.53;2.00;;;2.60;82.10;;;;;;6117300;23;20346;-79
2023/03/12 00:05:05;;;;;;;3.63;2.10;;;2.50;82.70;;;;;;6145173;23;20036;-79
2023/03/12 00:07:32;;;;;;;5.45;2.83;;;2.50;82.70;;;;;;6122807;23;20081;-79
2023/03/12 00:09:59;;;;;;;4.72;1.85;;;2.40;83.00;;;;;;6139495;23;20032;-80
2023/03/12 00:12:27;;;;;;;3.88;2.05;;;2.70;83.60;;;;;;6165200;23;20084;-80
2023/03/12 00:14:57;;;;;;;3.75;1.70;;;2.60;83.20;;;;;;6118215;23;20076;-78
2023/03/12 00:17:25;;;;;;;3.67;1.20;;;2.00;83.00;;;;;;6167921;23;20017;-78
2023/03/12 00:19:52;;;;;;;3.45;1.83;;;2.50;83.40;;;;;;6141516;23;20052;-79
2023/03/12 00:22:24;;;;;;;2.67;0.73;;;2.50;83.20;;;;;;6142981;23;20270;-79
2023/03/12 00:24:53;;;;;;;3.80;1.33;;;2.60;83.10;;;;;;6139364;23;20025;-79
2023/03/12 00:27:21;;;;;;;4.22;1.25;;;2.60;83.00;;;;;;6140193;23;20048;-79
2023/03/12 00:29:49;;;;;;;3.63;1.13;;;2.70;82.70;;;;;;6140159;23;20072;-79
2023/03/12 00:32:16;;;;;;;3.00;1.25;;;2.50;82.70;;;;;;6117059;23;20140;-79
2023/03/12 00:34:48;;;;;;;4.45;1.88;;;2.60;82.80;;;;;;6169700;23;20499;-79
2023/03/12 00:37:16;;;;;;;3.78;1.40;;;2.50;82.40;;;;;;6115508;23;20128;-80
2023/03/12 00:39:43;;;;;;;3.17;1.10;;;2.40;82.10;;;;;;6116697;23;20025;-79
2023/03/12 00:42:10;;;;;;;2.47;1.17;;;2.40;81.80;;;;;;6107072;23;20222;-80
2023/03/12 00:44:37;;;;;;;5.30;1.40;;;2.50;81.30;;;;;;6107351;23;20021;-79
2023/03/12 00:47:05;;;;;;;5.70;1.27;;;2.40;81.30;;;;;;6144356;23;20647;-79
2023/03/12 00:49:32;;;;;;;4.25;1.40;;;2.40;80.90;;;;;;6111427;23;20029;-79
2023/03/12 00:51:59;;;;;;;4.38;1.45;;;2.00;80.80;;;;;;6133893;23;20029;-80
2023/03/12 00:54:27;;;;;;;4.28;1.08;;;2.50;81.20;;;;;;6111845;23;20104;-79
2023/03/12 00:56:54;;;;;;;3.28;1.42;;;2.40;81.10;;;;;;6133215;23;20132;-79
2023/03/12 00:59:21;;;;;;;3.80;1.13;;;2.40;80.70;;;;;;6133950;23;20095;-79
2023/03/12 01:01:49;;;;;;;5.45;1.63;;;2.30;80.70;;;;;;6136589;23;20033;-80
2023/03/12 01:04:16;;;;;;;4.55;1.02;;;2.30;80.40;;;;;;6110824;23;20022;-79
2023/03/12 01:06:44;;;;;;;3.80;1.67;;;2.30;80.40;;;;;;6133260;23;20021;-80
2023/03/12 01:09:11;;;;;;;3.20;1.20;;;2.30;80.50;;;;;;6111454;23;20028;-80
2023/03/12 01:11:38;;;;;;;2.70;1.35;;;2.20;80.70;;;;;;6138929;23;20520;-80
2023/03/12 01:14:07;;;;;;;4.28;1.50;;;2.20;80.60;;;;;;6142101;23;20779;-80
2023/03/12 01:16:34;;;;;;;3.15;1.02;;;2.20;80.20;;;;;;6120664;23;20052;-80
2023/03/12 01:19:03;;;;;;;3.60;1.60;;;2.20;80.30;;;;;;6140559;23;20045;-80
2023/03/12 01:21:32;;;;;;;2.97;1.25;;;1.00;79.60;;;;;;6119376;23;20167;-80
2023/03/12 01:24:00;;;;;;;3.38;1.30;;;2.20;80.00;;;;;;6119313;23;20026;-79
2023/03/12 01:26:27;;;;;;;2.50;1.00;;;2.10;79.40;;;;;;6116124;23;20128;-80
2023/03/12 01:28:55;;;;;;;2.53;0.82;;;2.10;79.50;;;;;;6138408;23;20029;-79
2023/03/12 01:31:22;;;;;;;3.72;0.98;;;2.20;79.50;;;;;;6139792;23;20045;-79
2023/03/12 01:33:51;;;;;;;4.60;1.23;;;1.10;78.60;;;;;;6120228;23;20026;-79
2023/03/12 01:36:24;;;;;;;1.65;0.70;;;2.20;79.00;;;;;;6138985;23;20567;-80
2023/03/12 01:38:53;;;;;;;1.90;0.90;;;2.20;78.40;;;;;;6143119;23;20022;-79
2023/03/12 01:41:23;;;;;;;2.72;0.93;;;2.10;77.70;;;;;;6116668;23;20021;-79
2023/03/12 01:43:51;;;;;;;3.70;1.02;;;2.10;77.40;;;;;;6117285;23;20079;-80
2023/03/12 01:46:33;;;;;;;2.78;0.75;;;1.90;76.60;;;;;;6115283;23;20057;-80
2023/03/12 01:49:25;;;;;;;3.05;1.10;;;2.20;76.60;;;;;;6123301;23;20039;-78
2023/03/12 01:52:04;;;;;;;2.78;0.70;;;2.00;75.80;;;;;;6140950;23;20026;-80
2023/03/12 01:55:08;;;;;;;1.95;0.93;;;2.20;76.20;;;;;;6121250;23;20517;-80
2023/03/12 01:57:51;;;;;;;4.38;1.08;;;2.10;75.90;;;;;;6120008;23;20122;-80
2023/03/12 02:00:25;;;;;;;2.90;1.05;;;2.50;76.20;;;;;;6141063;23;20041;-79
2023/03/12 02:03:01;;;;;;;3.80;1.33;;;0.80;75.30;;;;;;6119720;23;20022;-79
2023/03/12 02:05:42;;;;;;;3.03;1.00;;;1.70;75.70;;;;;;6121217;23;20037;-79
2023/03/12 02:08:12;;;;;;;2.10;0.60;;;2.00;76.10;;;;;;6114783;23;20108;-79
2023/03/12 02:10:40;;;;;;;2.72;0.80;;;1.20;75.80;;;;;;6117448;23;20029;-79
2023/03/12 02:13:08;;;;;;;2.50;0.70;;;1.20;75.90;;;;;;6118216;23;20052;-79
2023/03/12 02:15:37;;;;;;;1.83;0.70;;;1.90;76.30;;;;;;6120367;23;20017;-79
2023/03/12 02:18:06;;;;;;;4.53;0.85;;;1.90;76.60;;;;;;6122332;23;20022;-80
2023/03/12 02:20:44;;;;;;;2.25;0.70;;;1.50;76.50;;;;;;6123106;23;20025;-80
2023/03/12 02:23:34;;;;;;;2.40;0.80;;;1.80;76.60;;;;;;6119455;23;20060;-79
2023/03/12 02:26:04;;;;;;;1.83;0.68;;;1.80;76.80;;;;;;6137189;23;20461;-79
2023/03/12 02:28:41;;;;;;;2.38;0.80;;;0.80;76.50;;;;;;6116448;23;20030;-80
2023/03/12 02:31:14;;;;;;;3.92;0.88;;;1.80;77.10;;;;;;6116468;23;20492;-79
2023/03/12 02:33:42;;;;;;;2.25;1.02;;;1.70;77.10;;;;;;6138887;23;20079;-80
2023/03/12 02:36:09;;;;;;;2.03;0.60;;;1.50;77.30;;;;;;6135866;23;20141;-79
2023/03/12 02:38:46;;;;;;;1.88;0.70;;;1.70;77.30;;;;;;6139109;23;20464;-79
2023/03/12 02:41:27;;;;;;;2.15;0.65;;;1.70;77.30;;;;;;6143962;23;20108;-79
2023/03/12 02:44:25;;;;;;;2.45;0.63;;;1.70;77.30;;;;;;6112846;23;20022;-79
2023/03/12 02:46:56;;;;;;;2.35;1.00;;;1.60;77.60;;;;;;6093519;23;20518;-79
2023/03/12 02:49:27;;;;;;;3.55;1.02;;;1.70;77.60;;;;;;6111188;23;20048;-79
2023/03/12 02:51:55;;;;;;;3.72;1.10;;;1.80;77.90;;;;;;6112927;23;20703;-79
2023/03/12 02:54:24;;;;;;;4.95;1.40;;;1.80;77.40;;;;;;6133601;23;20025;-79
2023/03/12 02:56:51;;;;;;;4.20;1.27;;;1.70;77.50;;;;;;6109417;23;20063;-79
2023/03/12 02:59:20;;;;;;;3.03;1.00;;;1.40;77.50;;;;;;6133370;23;20018;-80
2023/03/12 03:01:57;;;;;;;2.55;0.88;;;1.50;77.80;;;;;;6113254;23;20763;-79
2023/03/12 03:04:25;;;;;;;3.47;1.00;;;2.20;79.00;;;;;;6129886;23;20605;-79
2023/03/12 03:06:53;;;;;;;3.38;0.93;;;1.60;78.00;;;;;;6140178;23;20029;-79
2023/03/12 03:09:21;;;;;;;6.28;1.73;;;1.60;78.60;;;;;;6160326;23;20485;-80
2023/03/12 03:11:49;;;;;;;5.18;1.77;;;0.60;77.60;;;;;;6113250;23;20113;-79
2023/03/12 03:14:18;;;;;;;3.45;1.42;;;1.60;78.60;;;;;;6117886;23;20032;-79
2023/03/12 03:16:48;;;;;;;4.68;1.63;;;0.40;78.50;;;;;;6119205;23;20080;-80
2023/03/12 03:19:15;;;;;;;3.55;1.38;;;0.90;78.90;;;;;;6147132;23;20026;-80
2023/03/12 03:21:43;;;;;;;3.10;1.30;;;0.40;78.80;;;;;;6118921;23;20026;-79
2023/03/12 03:24:10;;;;;;;4.43;1.58;;;1.30;79.50;;;;;;6144215;23;20082;-79
2023/03/12 03:26:38;;;;;;;3.75;1.70;;;1.30;79.70;;;;;;6115354;23;20091;-79
2023/03/12 03:29:05;;;;;;;4.03;1.38;;;1.40;80.10;;;;;;6122069;23;20025;-79
2023/03/12 03:31:32;;;;;;;4.53;1.73;;;1.40;79.80;;;;;;6145975;23;20029;-79
2023/03/12 03:34:00;;;;;;;5.30;1.35;;;1.30;79.80;;;;;;6143213;23;20036;-80
2023/03/12 03:36:28;;;;;;;4.90;1.73;;;1.30;80.40;;;;;;6115408;23;20025;-79
2023/03/12 03:39:09;;;;;;;9.85;2.72;;;1.20;81.00;;;;;;6143853;23;20503;-80
2023/03/12 03:41:36;;;;;;;9.63;3.70;;;1.30;81.80;;;;;;6114954;23;20402;-80
2023/03/12 03:44:05;;;;;;;8.73;2.22;;;1.10;82.20;;;;;;6139045;23;20454;-80
2023/03/12 03:46:35;;;;;;;7.97;2.42;;;0.90;82.50;;;;;;6139946;23;20030;-80
2023/03/12 03:49:05;;;;;;;8.25;2.72;;;1.30;83.40;;;;;;6143773;23;20036;-79
2023/03/12 03:51:33;;;;;;;5.47;1.88;;;1.20;83.50;;;;;;6113489;23;20088;-79
2023/03/12 03:54:05;;;;;;;5.43;2.05;;;1.20;84.00;;;;;;6138482;23;20113;-79
2023/03/12 03:56:32;;;;;;;3.78;1.38;;;1.20;84.30;;;;;;6137899;23;20028;-78
2023/03/12 03:59:02;;;;;;;7.10;2.03;;;1.30;84.70;;;;;;6142633;23;20021;-79
2023/03/12 04:01:32;;;;;;;6.10;1.95;;;0.70;84.70;;;;;;6114981;23;20432;-78
2023/03/12 04:04:00;;;;;;;4.32;1.40;;;1.30;85.50;;;;;;6116610;23;20021;-79
2023/03/12 04:06:30;;;;;;;3.80;1.50;;;1.20;85.30;;;;;;6142018;23;20068;-79
2023/03/12 04:08:58;;;;;;;6.05;1.85;;;1.20;85.50;;;;;;6114418;23;20703;-79
2023/03/12 04:11:27;;;;;;;5.13;1.52;;;1.30;85.50;;;;;;6137485;23;20107;-79
2023/03/12 04:13:57;;;;;;;3.85;1.13;;;1.30;86.10;;;;;;6110766;23;20084;-79
2023/03/12 04:16:27;;;;;;;3.40;1.42;;;1.20;85.80;;;;;;6137555;23;20744;-79
2023/03/12 04:18:55;;;;;;;5.70;1.98;;;1.20;86.30;;;;;;6135618;23;20025;-79
2023/03/12 04:21:23;;;;;;;4.65;1.60;;;1.20;86.60;;;;;;6113161;23;20081;-79
2023/03/12 04:23:50;;;;;;;5.15;1.88;;;1.10;87.00;;;;;;6136950;23;20132;-80
2023/03/12 04:26:20;;;;;;;5.95;1.75;;;1.20;87.00;;;;;;6113311;23;20025;-80
2023/03/12 04:28:48;;;;;;;5.07;1.90;;;0.80;87.00;;;;;;6136368;23;20025;-79
2023/03/12 04:31:15;;;;;;;5.97;2.92;;;1.10;87.70;;;;;;6138188;23;20021;-79
2023/03/12 04:33:48;;;;;;;11.13;3.28;;;0.90;87.20;;;;;;6114433;23;20029;-80
2023/03/12 04:36:16;;;;;;;7.70;2.83;;;0.90;87.80;;;;;;6137261;23;20048;-80
2023/03/12 04:38:49;;;;;;;6.22;2.55;;;0.70;88.70;;;;;;6115200;23;20025;-79
2023/03/12 04:41:20;;;;;;;6.85;2.70;;;-0.40;88.40;;;;;;6109525;23;20021;-80
2023/03/12 04:43:52;;;;;;;7.53;3.40;;;0.70;89.60;;;;;;6136013;23;20049;-79
2023/03/12 04:46:20;;;;;;;6.57;2.60;;;0.50;90.20;;;;;;6133992;23;20029;-79
2023/03/12 04:48:48;;;;;;;6.70;2.75;;;0.50;90.60;;;;;;6110592;23;20035;-79
2023/03/12 04:51:15;;;;;;;9.52;3.47;;;0.50;90.80;;;;;;6130753;23;20031;-80
2023/03/12 04:53:43;;;;;;;12.57;3.88;;;0.60;90.90;;;;;;6108476;23;20025;-79
2023/03/12 04:56:12;;;;;;;13.02;4.70;;;0.50;91.00;;;;;;6131956;23;20557;-80
2023/03/12 04:58:40;;;;;;;9.50;3.88;;;0.50;91.00;;;;;;6133415;23;20028;-79
2023/03/12 05:01:30;;;;;;;13.63;4.85;;;0.40;91.20;;;;;;6130624;23;20021;-80
2023/03/12 05:03:58;;;;;;;15.02;6.50;;;0.50;91.20;;;;;;6128131;23;20021;-79
2023/03/12 05:06:26;;;;;;;16.23;6.63;;;0.60;91.30;;;;;;6106646;23;20116;-82
2023/03/12 05:08:55;;;;;;;12.75;5.75;;;0.60;91.20;;;;;;6103398;23;20025;-79
2023/03/12 05:11:23;;;;;;;21.13;8.82;;;0.70;91.10;;;;;;6132680;23;20040;-79
2023/03/12 05:13:50;;;;;;;21.25;7.90;;;0.70;91.10;;;;;;6136652;23;20484;-79
2023/03/12 05:16:18;;;;;;;13.52;5.18;;;0.60;91.00;;;;;;6147875;23;20568;-80
2023/03/12 05:18:46;;;;;;;11.80;4.60;;;0.60;91.00;;;;;;6113005;23;20505;-78
2023/03/12 05:21:19;;;;;;;9.25;4.15;;;-0.10;91.20;;;;;;6117956;23;20398;-80
2023/03/12 05:23:51;;;;;;;17.55;6.57;;;0.50;91.50;;;;;;6138614;23;20022;-80
2023/03/12 05:26:26;;;;;;;15.27;6.68;;;0.60;91.50;;;;;;6142008;23;20029;-79
2023/03/12 05:29:00;;;;;;;12.32;5.22;;;0.50;91.40;;;;;;6117733;23;20025;-79
2023/03/12 05:31:31;;;;;;;11.10;4.80;;;0.60;91.40;;;;;;6142954;23;20056;-79
2023/03/12 05:34:00;;;;;;;10.30;3.63;;;0.50;91.50;;;;;;6142191;23;20085;-79
2023/03/12 05:36:28;;;;;;;13.20;5.15;;;0.60;91.60;;;;;;6116132;23;20053;-80
2023/03/12 05:38:55;;;;;;;12.27;5.00;;;0.60;91.90;;;;;;6114439;23;20021;-80
2023/03/12 05:41:28;;;;;;;10.98;4.63;;;0.30;91.90;;;;;;6141378;23;20364;-80
2023/03/12 05:43:59;;;;;;;10.82;4.25;;;0.70;91.80;;;;;;6145793;23;20049;-79
2023/03/12 05:46:28;;;;;;;16.85;6.57;;;0.70;91.90;;;;;;6120978;23;20536;-79
2023/03/12 05:48:57;;;;;;;16.25;6.47;;;0.80;92.10;;;;;;6117291;23;20405;-79
2023/03/12 05:51:24;;;;;;;23.00;7.95;;;0.80;92.20;;;;;;6143087;23;20051;-80
2023/03/12 05:53:51;;;;;;;20.38;7.80;;;0.80;92.20;;;;;;6117586;23;20029;-80
2023/03/12 05:56:19;;;;;;;14.43;5.90;;;0.80;92.50;;;;;;6140598;23;20021;-79
2023/03/12 05:58:48;;;;;;;14.15;5.13;;;0.90;92.50;;;;;;6116649;23;20025;-80
2023/03/12 06:01:26;;;;;;;16.30;5.28;;;0.90;92.70;;;;;;6116710;23;20025;-80
2023/03/12 06:03:56;;;;;;;13.63;4.93;;;0.90;92.80;;;;;;6122462;23;20334;-80
2023/03/12 06:06:24;;;;;;;16.02;6.03;;;1.00;92.90;;;;;;6117995;23;20369;-80
2023/03/12 06:08:52;;;;;;;13.25;5.50;;;1.00;93.00;;;;;;6137397;23;20029;-79
2023/03/12 06:11:20;;;;;;;12.32;4.65;;;1.10;93.00;;;;;;6118928;23;20080;-80
2023/03/12 06:13:47;;;;;;;12.52;5.45;;;1.10;93.00;;;;;;6119538;23;20633;-80
2023/03/12 06:16:18;;;;;;;12.52;4.95;;;1.30;92.70;;;;;;6137066;23;20278;-80
2023/03/12 06:18:47;;;;;;;10.73;5.00;;;1.30;92.50;;;;;;6112441;23;20021;-79
2023/03/12 06:21:18;;;;;;;10.65;5.28;;;1.40;92.40;;;;;;6136099;23;20452;-80
2023/03/12 06:23:47;;;;;;;10.57;5.00;;;1.50;92.40;;;;;;6113139;23;20032;-80
2023/03/12 06:26:20;;;;;;;;;;;0.40;91.90;;;;;;6139867;23;20059;-79
2023/03/12 06:28:48;;;;;;;15.48;6.00;;;1.60;92.00;;;;;;6144634;23;19999;-79
2023/03/12 06:31:17;;;;;;;31.80;10.38;;;1.70;91.70;;;;;;6118844;23;20377;-79
2023/03/12 06:33:44;;;;;;;23.02;8.25;;;1.70;91.70;;;;;;6138699;23;20040;-79
2023/03/12 06:36:12;;;;;;;20.58;8.77;;;1.90;91.80;;;;;;6109812;23;20045;-79
2023/03/12 06:38:40;;;;;;;26.10;9.63;;;1.90;91.70;;;;;;6138517;23;20049;-80
2023/03/12 06:41:13;;;;;;;20.80;8.07;;;2.00;92.00;;;;;;6138639;23;20792;-79
2023/03/12 06:43:40;;;;;;;20.00;8.18;;;2.10;91.50;;;;;;6113319;23;20073;-80
2023/03/12 06:46:12;;;;;;;13.43;5.47;;;2.20;91.20;;;;;;6112301;23;20044;-79
2023/03/12 06:48:40;;;;;;;13.77;7.80;;;2.40;90.80;;;;;;6118023;23;20030;-79
2023/03/12 06:51:09;;;;;;;12.57;6.80;;;2.50;90.60;;;;;;6139952;23;20640;-79
2023/03/12 06:53:37;;;;;;;12.30;6.22;;;2.50;90.00;;;;;;6114684;23;20361;-79
2023/03/12 06:56:09;;;;;;;12.23;5.20;;;3.00;90.00;;;;;;6136331;23;20053;-79
2023/03/12 06:58:39;;;;;;;11.50;5.60;;;2.50;89.40;;;;;;6118282;23;20445;-79
2023/03/12 07:01:07;;;;;;;11.32;6.40;;;2.80;88.90;;;;;;6134509;23;20033;-80
2023/03/12 07:03:35;;;;;;;14.27;5.32;;;2.90;88.70;;;;;;6134489;23;20498;-80
2023/03/12 07:06:02;;;;;;;18.10;8.32;;;2.60;87.60;;;;;;6135964;23;20469;-80
2023/03/12 07:08:30;;;;;;;18.35;8.82;;;3.20;88.50;;;;;;6134872;23;20139;-80
2023/03/12 07:10:59;;;;;;;11.50;5.90;;;3.00;88.10;;;;;;6133520;23;20032;-80
2023/03/12 07:13:29;;;;;;;14.52;6.82;;;3.20;87.60;;;;;;6136344;23;20120;-79
2023/03/12 07:15:56;;;;;;;11.75;6.00;;;3.20;87.30;;;;;;6113009;23;20343;-78
2023/03/12 07:18:24;;;;;;;9.85;4.28;;;3.30;85.70;;;;;;6173469;23;20063;-79
2023/03/12 07:20:52;;;;;;;12.02;6.25;;;3.30;83.60;;;;;;6141116;23;20028;-80
2023/03/12 07:23:20;;;;;;;7.53;4.07;;;3.40;82.70;;;;;;6114759;23;20025;-80
2023/03/12 07:25:48;;;;;;;7.63;4.57;;;3.40;81.90;;;;;;6145481;23;20100;-81
2023/03/12 07:28:16;;;;;;;8.77;5.65;;;3.50;82.40;;;;;;6127210;23;20021;-80
2023/03/12 07:30:49;;;;;;;8.82;4.55;;;3.70;81.60;;;;;;6115739;23;20555;-80
2023/03/12 07:33:19;;;;;;;12.13;5.35;;;3.50;80.50;;;;;;6141731;23;20068;-80
2023/03/12 07:35:47;;;;;;;11.73;6.05;;;3.60;80.40;;;;;;6143002;23;20553;-80
2023/03/12 07:38:18;;;;;;;10.48;3.97;;;3.70;80.20;;;;;;6141178;23;20332;-79
2023/03/12 07:40:50;;;;;;;7.30;3.53;;;3.90;79.60;;;;;;6139902;23;20452;-79
2023/03/12 07:43:18;;;;;;;13.77;8.10;;;3.80;78.60;;;;;;6164717;23;20388;-79
2023/03/12 07:45:50;;;;;;;11.40;4.82;;;3.90;79.20;;;;;;6147817;23;20021;-80
2023/03/12 07:48:20;;;;;;;10.50;5.32;;;4.20;78.70;;;;;;6139328;23;20039;-79
2023/03/12 07:50:47;;;;;;;10.77;4.07;;;4.20;78.40;;;;;;6141301;23;20306;-80
2023/03/12 07:53:15;;;;;;;6.53;3.17;;;4.40;78.20;;;;;;6139989;23;20025;-79
2023/03/12 07:55:45;;;;;;;6.00;3.30;;;4.30;74.90;;;;;;6119644;23;20039;-79
2023/03/12 07:58:14;;;;;;;9.10;4.55;;;4.30;75.30;;;;;;6123607;23;20429;-81
2023/03/12 08:00:42;;;;;;;136.40;59.97;;;4.40;76.20;;;;;;6140990;23;20021;-80
2023/03/12 08:03:11;;;;;;;9.93;4.82;;;4.50;76.00;;;;;;6144010;23;20480;-79
2023/03/12 08:05:39;;;;;;;9.68;4.22;;;4.30;73.30;;;;;;6143712;23;20016;-79
2023/03/12 08:08:07;;;;;;;16.10;9.40;;;4.50;73.90;;;;;;6144473;23;20031;-79
2023/03/12 08:10:35;;;;;;;6.15;2.92;;;4.60;73.10;;;;;;6122138;23;20029;-79
2023/03/12 08:13:03;;;;;;;6.93;4.50;;;4.40;72.80;;;;;;6122752;23;20449;-81
2023/03/12 08:15:31;;;;;;;9.85;5.18;;;4.90;73.70;;;;;;6122728;23;20025;-79
2023/03/12 08:17:58;;;;;;;8.95;3.88;;;4.50;72.50;;;;;;6127500;23;20033;-80
2023/03/12 08:20:26;;;;;;;7.88;3.33;;;4.50;72.40;;;;;;6149047;23;20472;-80
2023/03/12 08:22:53;;;;;;;28.70;10.98;;;4.60;72.10;;;;;;6173306;23;20099;-80
2023/03/12 08:25:23;;;;;;;23.25;9.07;;;4.80;71.90;;;;;;6145481;23;20017;-80
2023/03/12 08:27:51;;;;;;;9.23;4.18;;;4.70;72.30;;;;;;6141708;23;20029;-79
2023/03/12 08:30:19;;;;;;;5.90;2.47;;;4.90;72.60;;;;;;6142212;23;20128;-80
2023/03/12 08:32:46;;;;;;;5.47;2.78;;;5.50;72.10;;;;;;6121176;23;20017;-79
2023/03/12 08:35:14;;;;;;;6.90;3.05;;;5.00;72.70;;;;;;6145105;23;20025;-79
2023/03/12 08:37:41;;;;;;;7.75;3.25;;;5.10;71.80;;;;;;6144498;23;20031;-79
2023/03/12 08:40:12;;;;;;;12.90;5.45;;;5.10;71.00;;;;;;6145290;23;20025;-79
2023/03/12 08:42:40;;;;;;;9.20;3.70;;;5.10;71.90;;;;;;6117172;23;20424;-79
2023/03/12 08:45:09;;;;;;;6.80;3.03;;;5.20;70.60;;;;;;6149142;23;20033;-79
2023/03/12 08:47:40;;;;;;;7.60;3.00;;;5.20;70.20;;;;;;6119983;23;20056;-80
2023/03/12 08:50:10;;;;;;;7.88;3.55;;;5.00;70.60;;;;;;6119927;23;20143;-80
2023/03/12 08:52:38;;;;;;;5.88;2.85;;;5.30;70.40;;;;;;6146995;23;20031;-79
2023/03/12 08:55:06;;;;;;;5.65;2.28;;;5.20;69.50;;;;;;6115348;23;20044;-79
2023/03/12 08:57:34;;;;;;;17.27;5.90;;;5.30;68.00;;;;;;6120716;23;20392;-80
2023/03/12 09:00:04;;;;;;;10.15;4.22;;;5.50;68.50;;;;;;6117405;23;20528;-80
2023/03/12 09:02:32;;;;;;;8.90;3.88;;;4.60;67.90;;;;;;6122278;23;20404;-79
2023/03/12 09:04:59;;;;;;;5.90;2.72;;;5.10;68.50;;;;;;6144039;23;20076;-80
2023/03/12 09:07:27;;;;;;;4.13;2.35;;;5.50;67.70;;;;;;6113962;23;20080;-78
2023/03/12 09:09:54;;;;;;;5.25;3.10;;;5.50;64.70;;;;;;6140891;23;20056;-80
2023/03/12 09:12:25;;;;;;;6.57;2.85;;;5.60;65.10;;;;;;6118765;23;20029;-80
2023/03/12 09:14:55;;;;;;;5.57;2.60;;;5.50;63.70;;;;;;6121501;23;20571;-80
2023/03/12 09:17:31;;;;;;;4.60;2.95;;;5.40;62.90;;;;;;6140404;23;20075;-80
2023/03/12 09:19:59;;;;;;;7.65;3.90;;;5.70;64.80;;;;;;6118480;23;20516;-81
2023/03/12 09:22:29;;;;;;;7.07;3.08;;;5.80;64.50;;;;;;6119147;23;20024;-79
2023/03/12 09:24:57;;;;;;;4.82;2.13;;;5.80;63.70;;;;;;6113246;23;20300;-80
2023/03/12 09:27:24;;;;;;;4.05;2.13;;;5.80;63.40;;;;;;6120545;23;20278;-80
2023/03/12 09:29:53;;;;;;;3.78;1.90;;;5.80;61.40;;;;;;6120089;23;20108;-80
2023/03/12 09:32:27;;;;;;;4.43;2.08;;;5.90;60.60;;;;;;6118657;23;20028;-80
2023/03/12 09:34:55;;;;;;;5.25;2.08;;;6.00;61.30;;;;;;6117549;23;20467;-80
2023/03/12 09:37:22;;;;;;;5.28;2.63;;;6.00;62.60;;;;;;6145111;23;20028;-79
2023/03/12 09:39:51;;;;;;;4.95;2.70;;;6.00;62.50;;;;;;6119043;23;20036;-79
2023/03/12 09:42:36;;;;;;;5.95;2.33;;;6.60;62.20;;;;;;6117793;23;20455;-81
2023/03/12 09:45:06;;;;;;;5.28;2.25;;;6.10;61.40;;;;;;6117890;23;20025;-79
2023/03/12 09:47:50;;;;;;;5.95;2.55;;;6.30;62.40;;;;;;6167212;23;20031;-79
2023/03/12 09:50:27;;;;;;;3.33;2.05;;;6.30;60.90;;;;;;6116720;23;20092;-79
2023/03/12 09:53:17;;;;;;;6.15;2.70;;;6.20;61.00;;;;;;6142735;23;20520;-79
2023/03/12 09:55:49;;;;;;;5.28;3.33;;;6.20;61.00;;;;;;6142837;23;20445;-80
2023/03/12 09:58:25;;;;;;;5.10;2.35;;;5.90;60.90;;;;;;6119474;23;20021;-79
2023/03/12 10:01:09;;;;;;;5.13;2.38;;;6.50;60.60;;;;;;6121537;23;20025;-80
2023/03/12 10:03:48;;;;;;;4.50;2.08;;;6.40;60.60;;;;;;6141436;23;20031;-80
2023/03/12 10:06:20;;;;;;;6.35;2.90;;;6.70;60.70;;;;;;6141682;23;20489;-79
2023/03/12 10:09:20;;;;;;;6.85;2.67;;;6.70;60.20;;;;;;6141832;23;20079;-80
2023/03/12 10:12:16;;;;;;;3.08;1.67;;;6.80;61.10;;;;;;6144173;23;20033;-80
2023/03/12 10:15:04;;;;;;;3.88;2.20;;;6.50;58.10;;;;;;6141796;23;20919;-80
2023/03/12 10:18:02;;;;;;;4.68;1.98;;;6.20;56.20;;;;;;6116580;23;20020;-79
2023/03/12 10:20:58;;;;;;;5.60;2.35;;;5.60;55.70;;;;;;6141732;23;20028;-80
2023/03/12 10:23:33;;;;;;;4.57;2.20;;;6.40;57.80;;;;;;6122648;23;20017;-79
2023/03/12 10:26:13;;;;;;;6.50;2.13;;;6.80;57.60;;;;;;6142558;23;20364;-78
2023/03/12 10:28:52;;;;;;;5.53;2.92;;;6.90;58.30;;;;;;6117973;23;20029;-80
2023/03/12 10:31:27;;;;;;;5.78;2.03;;;7.00;57.70;;;;;;6145348;23;20624;-79
2023/03/12 10:33:59;;;;;;;4.85;2.22;;;6.60;57.30;;;;;;6118915;23;20403;-79
2023/03/12 10:36:33;;;;;;;5.90;2.67;;;7.40;60.10;;;;;;6144582;23;20079;-80
2023/03/12 10:39:01;;;;;;;4.05;2.08;;;7.60;60.30;;;;;;6140303;23;20496;-80
2023/03/12 10:41:30;;;;;;;6.10;2.65;;;7.60;60.30;;;;;;6116840;23;20373;-79
2023/03/12 10:44:07;;;;;;;6.03;2.55;;;7.70;58.90;;;;;;6118744;23;20021;-80
2023/03/12 10:47:16;;;;;;;5.43;2.65;;;7.90;58.10;;;;;;6119892;23;20618;-79
2023/03/12 10:49:49;;;;;;;4.82;2.33;;;7.60;56.60;;;;;;6095657;23;20048;-80
2023/03/12 10:52:21;;;;;;;4.38;2.15;;;7.60;57.30;;;;;;6141104;23;20107;-80
2023/03/12 10:54:51;;;;;;;7.72;3.42;;;8.10;57.60;;;;;;6142163;23;20169;-78
2023/03/12 10:57:22;;;;;;;5.22;2.40;;;7.90;56.30;;;;;;6116634;23;20363;-79
2023/03/12 10:59:52;;;;;;;6.10;2.50;;;7.70;55.70;;;;;;6120788;23;20020;-79
2023/03/12 11:02:45;;;;;;;4.93;2.47;;;8.00;55.40;;;;;;6142594;23;20469;-79
2023/03/12 11:05:23;;;;;;;4.63;2.20;;;7.90;53.80;;;;;;6149642;23;20025;-79
2023/03/12 11:07:56;;;;;;;5.95;3.20;;;7.60;55.30;;;;;;6122535;23;20029;-79
2023/03/12 11:10:36;;;;;;;6.38;2.85;;;7.40;57.30;;;;;;6125111;23;20519;-79
2023/03/12 11:13:19;;;;;;;5.75;2.90;;;8.00;58.10;;;;;;6121723;23;20025;-79
2023/03/12 11:15:51;;;;;;;6.15;3.47;;;8.20;55.40;;;;;;6124206;23;20029;-79
2023/03/12 11:18:26;;;;;;;4.72;2.78;;;7.90;53.30;;;;;;6120704;23;20024;-80
2023/03/12 11:21:17;;;;;;;7.28;2.70;;;7.90;54.50;;;;;;6122448;23;20025;-79
2023/03/12 11:23:55;;;;;;;9.32;5.82;;;7.90;54.60;;;;;;6143662;23;20520;-79
2023/03/12 11:26:27;;;;;;;6.50;3.40;;;8.40;56.60;;;;;;6123149;23;20025;-79
2023/03/12 11:29:15;;;;;;;22.02;11.43;;;8.60;55.50;;;;;;6121162;23;20443;-80
2023/03/12 11:32:17;;;;;;;4.07;2.50;;;8.60;56.00;;;;;;6124006;23;20405;-80
2023/03/12 11:34:48;;;;;;;8.23;4.18;;;8.60;57.00;;;;;;6124716;23;20032;-80
2023/03/12 11:37:37;;;;;;;7.25;3.83;;;8.70;57.40;;;;;;6124440;23;20107;-79
2023/03/12 11:40:25;;;;;;;7.35;4.55;;;8.60;55.10;;;;;;6125719;23;20060;-79
2023/03/12 11:43:24;;;;;;;5.85;3.30;;;8.40;53.30;;;;;;6144639;23;20017;-79
2023/03/12 11:46:31;;;;;;;3.78;2.03;;;8.50;53.90;;;;;;6145807;23;20025;-79
2023/03/12 11:49:11;;;;;;;21.85;15.55;;;8.40;53.00;;;;;;6120377;23;20025;-78
2023/03/12 11:52:00;;;;;;;16.10;10.07;;;8.50;56.80;;;;;;6122308;23;20057;-79
2023/03/12 11:54:47;;;;;;;4.75;2.80;;;8.70;57.20;;;;;;6119705;23;20025;-79
2023/03/12 11:57:47;;;;;;;4.18;2.05;;;9.00;55.60;;;;;;6134931;23;20036;-78
2023/03/12 12:00:24;;;;;;;6.65;4.07;;;8.60;53.60;;;;;;6115717;23;20021;-79
2023/03/12 12:03:38;;;;;;;5.00;2.70;;;8.60;53.60;;;;;;6118711;23;20165;-80
2023/03/12 12:06:42;;;;;;;4.55;2.40;;;8.70;56.10;;;;;;6091185;23;20028;-80
2023/03/12 12:09:31;;;;;;;4.50;2.97;;;8.80;55.60;;;;;;6091342;23;20029;-78
2023/03/12 12:12:24;;;;;;;3.65;2.30;;;9.00;55.10;;;;;;6112517;23;20026;-79
2023/03/12 12:15:02;;;;;;;6.28;2.50;;;9.40;55.40;;;;;;6113282;23;20025;-79
2023/03/12 12:17:48;;;;;;;5.82;2.05;;;9.20;53.30;;;;;;6114111;23;20483;-79
2023/03/12 12:20:28;;;;;;;3.13;1.73;;;8.20;53.10;;;;;;6137844;23;20021;-81
2023/03/12 12:23:01;;;;;;;4.03;2.22;;;9.30;53.30;;;;;;6082754;23;20022;-78
2023/03/12 12:25:34;;;;;;;4.38;1.88;;;10.00;53.30;;;;;;6134296;23;20056;-79
2023/03/12 12:28:20;;;;;;;3.35;1.30;;;9.30;53.20;;;;;;6099474;23;20024;-78
2023/03/12 12:31:27;;;;;;;15.98;9.35;;;9.40;52.80;;;;;;6143481;23;20029;-79
2023/03/12 12:34:04;;;;;;;14.13;8.73;;;9.50;52.20;;;;;;6119566;23;20040;-80
2023/03/12 12:36:34;;;;;;;3.65;1.10;;;9.50;51.30;;;;;;6124137;23;20025;-80
2023/03/12 12:39:28;;;;;;;5.13;2.45;;;9.30;50.20;;;;;;6144040;23;20027;-78
2023/03/12 12:42:01;;;;;;;2.97;0.90;;;9.40;50.90;;;;;;6144810;23;20380;-79
2023/03/12 12:44:48;;;;;;;3.10;1.35;;;9.40;47.50;;;;;;6141621;23;20017;-80
2023/03/12 12:47:21;;;;;;;2.35;0.90;;;9.40;47.80;;;;;;6167815;23;20052;-78
2023/03/12 12:49:56;;;;;;;2.88;0.70;;;9.50;47.90;;;;;;6145270;23;20481;-79
2023/03/12 12:52:24;;;;;;;3.65;1.48;;;9.60;48.00;;;;;;6143192;23;20017;-79
2023/03/12 12:55:14;;;;;;;1.65;0.70;;;9.50;46.80;;;;;;6118598;23;20342;-79
2023/03/12 12:57:44;;;;;;;3.88;1.80;;;9.30;44.80;;;;;;6118621;23;20135;-80
2023/03/12 13:00:35;;;;;;;1.80;0.80;;;9.30;47.60;;;;;;6120912;23;20025;-79
2023/03/12 13:03:04;;;;;;;2.38;0.90;;;9.60;46.00;;;;;;6122464;23;20417;-78
2023/03/12 13:05:49;;;;;;;2.63;0.82;;;9.40;44.70;;;;;;6143402;23;20110;-78
2023/03/12 13:08:44;;;;;;;2.55;0.98;;;9.30;44.40;;;;;;6143660;23;20035;-80
2023/03/12 13:11:14;;;;;;;6.13;1.70;;;9.50;46.50;;;;;;6144906;23;20034;-79
2023/03/12 13:14:11;;;;;;;16.60;4.65;;;9.80;47.50;;;;;;6122788;23;20021;-78
2023/03/12 13:16:42;;;;;;;3.05;1.02;;;9.90;46.90;;;;;;6121434;23;20107;-78
2023/03/12 13:19:12;;;;;;;6.15;1.58;;;9.70;44.00;;;;;;6119420;23;20031;-78
2023/03/12 13:21:58;;;;;;;2.65;0.93;;;9.60;44.10;;;;;;6122385;23;20524;-79
2023/03/12 13:25:04;;;;;;;1650.75;569.63;;;9.30;43.90;;;;;;6112570;23;20029;-79